Time;durP1;ratioP1;P1;durP2;ratioP2;P2;SDS_P1;SDS_P2;PMS_P1;PMS_P2;Temp;Humidity;BMP_temperature;BMP_pressure;BME280_temperature;BME280_humidity;BME280_pressure;Samples;Min_cycle;Max_cycle;Signal;HPM_P1;HPM_P2
2023/03/07 00:02:00;;;;;;;1.70;1.60;;;15.10;59.80;;;;;;5091112;28;20193;-47
2023/03/07 00:04:30;;;;;;;2.23;2.00;;;15.10;59.90;;;;;;5090535;28;20547;-47
2023/03/07 00:07:02;;;;;;;2.40;1.80;;;15.10;59.90;;;;;;5085038;28;20223;-47
2023/03/07 00:09:35;;;;;;;2.50;2.30;;;15.10;59.90;;;;;;5073531;28;20212;-47
2023/03/07 00:12:08;;;;;;;1.40;1.30;;;15.10;59.90;;;;;;5099336;28;20908;-47
2023/03/07 00:14:40;;;;;;;1.70;1.60;;;15.10;60.00;;;;;;5090078;28;20618;-47
2023/03/07 00:17:14;;;;;;;1.70;1.60;;;15.10;59.90;;;;;;5085413;28;20255;-47
2023/03/07 00:19:42;;;;;;;2.43;1.80;;;15.10;60.00;;;;;;5089729;28;20266;-47
2023/03/07 00:22:14;;;;;;;1.63;1.30;;;15.10;59.90;;;;;;5076178;28;20282;-48
2023/03/07 00:24:47;;;;;;;1.90;1.70;;;15.10;60.00;;;;;;5086659;28;20524;-46
2023/03/07 00:27:16;;;;;;;2.83;1.63;;;15.00;60.00;;;;;;5084652;28;20223;-47
2023/03/07 00:29:49;;;;;;;1.97;1.50;;;15.00;60.10;;;;;;5077520;28;20219;-47
2023/03/07 00:32:21;;;;;;;1.53;1.43;;;15.10;60.20;;;;;;5072084;28;20197;-47
2023/03/07 00:34:50;;;;;;;2.83;1.40;;;15.10;60.30;;;;;;5071149;28;20259;-47
2023/03/07 00:37:23;;;;;;;1.70;1.20;;;15.00;60.30;;;;;;5075906;28;20205;-48
2023/03/07 00:39:51;;;;;;;1.77;1.40;;;15.10;60.20;;;;;;5089511;28;20189;-48
2023/03/07 00:42:25;;;;;;;1.90;1.60;;;15.00;60.20;;;;;;5085126;28;20213;-48
2023/03/07 00:44:56;;;;;;;1.43;1.30;;;15.00;60.30;;;;;;5085966;28;20205;-48
2023/03/07 00:47:31;;;;;;;1.30;1.20;;;15.00;60.30;;;;;;5088052;28;20301;-48
2023/03/07 00:50:03;;;;;;;1.90;1.40;;;15.00;60.50;;;;;;5093204;28;20239;-47
2023/03/07 00:52:32;;;;;;;2.40;1.27;;;15.00;60.50;;;;;;5090118;28;20609;-48
2023/03/07 00:54:59;;;;;;;1.23;1.10;;;15.00;60.50;;;;;;5075550;28;20209;-47
2023/03/07 00:57:31;;;;;;;2.00;1.17;;;15.00;60.60;;;;;;5096626;28;20581;-47
2023/03/07 01:00:04;;;;;;;1.03;0.93;;;15.00;60.80;;;;;;5084353;28;20193;-47
2023/03/07 01:02:32;;;;;;;2.00;1.10;;;15.00;60.70;;;;;;5094713;28;20520;-47
2023/03/07 01:05:07;;;;;;;2.70;1.20;;;15.00;60.60;;;;;;5072998;28;20193;-47
2023/03/07 01:07:37;;;;;;;1.73;1.00;;;15.00;60.60;;;;;;5089754;28;20205;-47
2023/03/07 01:10:09;;;;;;;1.37;1.10;;;15.00;60.80;;;;;;5089305;28;20215;-48
2023/03/07 01:12:39;;;;;;;2.03;1.20;;;15.00;60.70;;;;;;5090553;28;20215;-47
2023/03/07 01:15:11;;;;;;;1.00;0.90;;;15.00;61.00;;;;;;5087638;28;20505;-47
2023/03/07 01:17:53;;;;;;;1.60;1.10;;;15.00;61.10;;;;;;5086530;28;20244;-47
2023/03/07 01:20:22;;;;;;;1.53;0.80;;;15.00;60.90;;;;;;5073211;28;20654;-47
2023/03/07 01:22:53;;;;;;;1.00;0.90;;;15.00;61.10;;;;;;5089283;28;20204;-47
2023/03/07 01:25:23;;;;;;;0.93;0.93;;;15.00;61.20;;;;;;5092355;28;20224;-47
2023/03/07 01:27:56;;;;;;;2.03;1.03;;;15.00;61.10;;;;;;5091657;28;20186;-47
2023/03/07 01:30:27;;;;;;;1.00;0.90;;;14.90;61.20;;;;;;5085129;28;20213;-47
2023/03/07 01:33:10;;;;;;;1.20;0.77;;;14.90;61.20;;;;;;5076913;28;20199;-47
2023/03/07 01:35:41;;;;;;;0.93;0.70;;;14.90;61.20;;;;;;5088349;28;20826;-48
2023/03/07 01:38:12;;;;;;;1.57;1.47;;;15.00;61.30;;;;;;5088593;28;20216;-47
2023/03/07 01:40:41;;;;;;;2.73;1.10;;;15.00;61.40;;;;;;5088087;28;20189;-47
2023/03/07 01:43:37;;;;;;;1.07;1.03;;;15.00;61.30;;;;;;5065701;28;20282;-47
2023/03/07 01:46:45;;;;;;;1.07;0.97;;;15.00;61.20;;;;;;5062770;28;20845;-47
2023/03/07 01:49:23;;;;;;;0.97;0.90;;;14.90;61.20;;;;;;5055215;28;20189;-47
2023/03/07 01:52:31;;;;;;;0.73;0.60;;;14.90;61.50;;;;;;5063384;28;20190;-47
2023/03/07 01:55:07;;;;;;;1.23;0.60;;;14.90;61.40;;;;;;5052569;28;20201;-47
2023/03/07 01:57:42;;;;;;;0.80;0.80;;;14.90;61.60;;;;;;5067891;28;20622;-47
2023/03/07 02:00:22;;;;;;;0.57;0.57;;;14.90;61.60;;;;;;5067730;28;20633;-47
2023/03/07 02:02:57;;;;;;;0.90;0.70;;;14.90;61.70;;;;;;5057732;28;20178;-47
2023/03/07 02:05:57;;;;;;;0.60;0.60;;;14.90;61.70;;;;;;5066078;28;20224;-47
2023/03/07 02:08:30;;;;;;;2.07;0.60;;;14.90;61.60;;;;;;5057336;28;20211;-47
2023/03/07 02:11:01;;;;;;;0.83;0.70;;;14.90;61.80;;;;;;5030960;28;20635;-47
2023/03/07 02:13:32;;;;;;;0.50;0.50;;;14.90;61.70;;;;;;5071149;28;20216;-47
2023/03/07 02:16:06;;;;;;;0.80;0.80;;;14.90;61.80;;;;;;5052194;28;20186;-47
2023/03/07 02:18:43;;;;;;;1.00;0.73;;;14.90;61.70;;;;;;5066968;28;20271;-47
2023/03/07 02:21:46;;;;;;;0.80;0.80;;;14.90;61.70;;;;;;5059878;28;20197;-47
2023/03/07 02:24:39;;;;;;;0.93;0.70;;;14.90;61.80;;;;;;5041984;28;20277;-47
2023/03/07 02:27:09;;;;;;;0.53;0.50;;;14.90;61.80;;;;;;5037272;28;20372;-47
2023/03/07 02:29:41;;;;;;;1.27;0.73;;;14.90;62.10;;;;;;5033558;28;20239;-47
2023/03/07 02:32:10;;;;;;;0.90;0.60;;;14.90;62.00;;;;;;5056666;28;20255;-47
2023/03/07 02:34:54;;;;;;;1.57;0.50;;;14.80;61.90;;;;;;5041622;28;20194;-47
2023/03/07 02:37:31;;;;;;;0.40;0.40;;;14.90;62.70;;;;;;5055291;28;20213;-47
2023/03/07 02:40:05;;;;;;;0.93;0.50;;;14.90;62.00;;;;;;5059574;28;20190;-47
2023/03/07 02:42:44;;;;;;;0.50;0.50;;;14.90;62.20;;;;;;5050016;28;20209;-48
2023/03/07 02:45:15;;;;;;;0.70;0.70;;;14.80;62.10;;;;;;5068055;28;20234;-47
2023/03/07 02:47:50;;;;;;;0.37;0.37;;;14.80;62.20;;;;;;5040573;28;20237;-47
2023/03/07 02:50:25;;;;;;;0.87;0.50;;;14.90;62.30;;;;;;5067297;28;20209;-48
2023/03/07 02:52:57;;;;;;;0.67;0.50;;;14.90;62.20;;;;;;5065167;28;20209;-47
2023/03/07 02:55:27;;;;;;;0.47;0.47;;;14.90;62.20;;;;;;5049910;28;20233;-48
2023/03/07 02:57:56;;;;;;;0.57;0.57;;;14.80;62.30;;;;;;5058707;28;20271;-47
2023/03/07 03:00:25;;;;;;;1.43;0.40;;;14.80;62.30;;;;;;5069247;28;20193;-47
2023/03/07 03:02:54;;;;;;;0.70;0.50;;;14.80;62.20;;;;;;5061133;28;20646;-47
2023/03/07 03:05:26;;;;;;;0.40;0.30;;;14.90;62.40;;;;;;5065316;28;20194;-47
2023/03/07 03:07:55;;;;;;;0.60;0.60;;;14.80;62.30;;;;;;5034540;28;20216;-47
2023/03/07 03:10:25;;;;;;;0.50;0.40;;;14.90;62.40;;;;;;5066868;28;20202;-47
2023/03/07 03:12:56;;;;;;;0.83;0.40;;;14.90;62.40;;;;;;5062260;28;20218;-47
2023/03/07 03:15:27;;;;;;;0.50;0.50;;;14.80;62.30;;;;;;5055492;28;20189;-47
2023/03/07 03:17:59;;;;;;;1.70;0.50;;;14.80;62.30;;;;;;5051977;28;20221;-47
2023/03/07 03:20:29;;;;;;;1.60;0.47;;;14.80;62.50;;;;;;5049337;28;20208;-47
2023/03/07 03:23:01;;;;;;;0.50;0.37;;;14.90;62.60;;;;;;5052978;28;20251;-47
2023/03/07 03:25:30;;;;;;;0.40;0.40;;;14.80;62.70;;;;;;5059314;28;20209;-47
2023/03/07 03:28:00;;;;;;;0.63;0.63;;;14.80;62.50;;;;;;5074113;28;20197;-47
2023/03/07 03:30:34;;;;;;;0.40;0.40;;;14.80;62.50;;;;;;5055405;28;20202;-47
2023/03/07 03:33:07;;;;;;;0.80;0.50;;;14.80;62.50;;;;;;5065866;28;20213;-47
2023/03/07 03:35:39;;;;;;;0.40;0.40;;;14.80;62.60;;;;;;5069941;28;20190;-47
2023/03/07 03:38:12;;;;;;;0.57;0.30;;;14.80;62.80;;;;;;5061967;28;20218;-47
2023/03/07 03:40:44;;;;;;;1.10;0.47;;;14.80;62.80;;;;;;5065212;28;20194;-47
2023/03/07 03:43:12;;;;;;;0.60;0.40;;;14.80;62.80;;;;;;5043435;28;20221;-47
2023/03/07 03:45:55;;;;;;;0.50;0.33;;;14.80;63.30;;;;;;5051127;28;20229;-47
2023/03/07 03:48:25;;;;;;;0.57;0.40;;;14.80;62.80;;;;;;5090613;28;20201;-47
2023/03/07 03:51:13;;;;;;;0.30;0.23;;;14.80;62.80;;;;;;5086949;28;20228;-47
2023/03/07 03:53:42;;;;;;;0.53;0.50;;;14.80;62.80;;;;;;5078261;28;20615;-47
2023/03/07 03:56:21;;;;;;;0.60;0.40;;;14.80;62.70;;;;;;5088953;28;20217;-47
2023/03/07 03:58:54;;;;;;;0.40;0.40;;;14.80;62.90;;;;;;5071401;28;20317;-47
2023/03/07 04:01:26;;;;;;;1.10;0.27;;;14.80;63.00;;;;;;5072651;28;20574;-47
2023/03/07 04:03:56;;;;;;;0.40;0.40;;;14.80;63.00;;;;;;5073310;28;20208;-47
2023/03/07 04:06:29;;;;;;;1.30;0.80;;;14.80;62.90;;;;;;5075113;28;20606;-47
2023/03/07 04:08:59;;;;;;;0.37;0.37;;;14.80;62.80;;;;;;5066438;28;20221;-47
2023/03/07 04:11:28;;;;;;;0.30;0.30;;;14.80;62.80;;;;;;5072872;28;20197;-47
2023/03/07 04:13:58;;;;;;;0.50;0.50;;;14.80;63.00;;;;;;5073177;28;20821;-47
2023/03/07 04:16:27;;;;;;;0.53;0.40;;;14.80;63.00;;;;;;5092377;28;20528;-47
2023/03/07 04:18:57;;;;;;;1.20;0.23;;;14.80;63.10;;;;;;5088784;28;20219;-47
2023/03/07 04:21:27;;;;;;;0.43;0.30;;;14.80;63.10;;;;;;5094249;28;20277;-47
2023/03/07 04:24:00;;;;;;;0.67;0.47;;;14.80;63.00;;;;;;5092340;28;20205;-47
2023/03/07 04:26:33;;;;;;;0.57;0.57;;;14.80;63.00;;;;;;5089614;28;20197;-47
2023/03/07 04:29:03;;;;;;;0.63;0.50;;;14.80;63.00;;;;;;5070177;28;20193;-47
2023/03/07 04:31:49;;;;;;;0.47;0.47;;;14.80;63.00;;;;;;5070853;28;20212;-47
2023/03/07 04:34:20;;;;;;;0.50;0.47;;;14.80;63.10;;;;;;5091069;28;20720;-47
2023/03/07 04:36:51;;;;;;;0.83;0.50;;;14.80;63.00;;;;;;5089427;28;20197;-47
2023/03/07 04:39:20;;;;;;;0.47;0.40;;;14.80;63.00;;;;;;5091520;28;20205;-47
2023/03/07 04:41:51;;;;;;;0.50;0.20;;;14.80;63.00;;;;;;5093280;28;20189;-47
2023/03/07 04:44:20;;;;;;;0.70;0.60;;;14.80;63.00;;;;;;5088322;28;20209;-47
2023/03/07 04:46:51;;;;;;;0.53;0.53;;;14.80;63.10;;;;;;5092326;28;20305;-48
2023/03/07 04:49:22;;;;;;;0.37;0.30;;;14.80;63.10;;;;;;5090904;28;20205;-47
2023/03/07 04:51:50;;;;;;;1.47;0.37;;;14.80;63.20;;;;;;5090853;28;20192;-48
2023/03/07 04:54:22;;;;;;;0.70;0.50;;;14.80;63.10;;;;;;5091723;28;20223;-47
2023/03/07 04:56:48;;;;;;;0.87;0.50;;;14.80;63.10;;;;;;5085498;28;20212;-47
2023/03/07 04:59:19;;;;;;;0.80;0.50;;;14.70;63.10;;;;;;5091858;28;20221;-53
2023/03/07 05:01:52;;;;;;;1.47;0.50;;;14.80;63.10;;;;;;5092130;28;20197;-47
2023/03/07 05:04:26;;;;;;;1.53;0.73;;;14.70;63.20;;;;;;5059304;28;20214;-48
2023/03/07 05:06:58;;;;;;;0.60;0.60;;;14.80;63.20;;;;;;5083844;28;20208;-47
2023/03/07 05:09:29;;;;;;;0.30;0.20;;;14.70;63.20;;;;;;5089184;28;20197;-47
2023/03/07 05:11:57;;;;;;;0.67;0.57;;;14.70;63.10;;;;;;5089802;28;20270;-48
2023/03/07 05:14:28;;;;;;;0.73;0.47;;;14.70;63.20;;;;;;5072237;28;20662;-47
2023/03/07 05:16:57;;;;;;;0.50;0.40;;;14.70;63.20;;;;;;5069246;28;20592;-47
2023/03/07 05:19:29;;;;;;;0.50;0.47;;;14.70;63.20;;;;;;5086302;28;20588;-47
2023/03/07 05:22:00;;;;;;;0.80;0.63;;;14.70;63.20;;;;;;5088813;28;20200;-47
2023/03/07 05:24:29;;;;;;;0.57;0.33;;;14.70;63.10;;;;;;5069462;28;20213;-48
2023/03/07 05:27:00;;;;;;;0.60;0.60;;;14.70;63.20;;;;;;5086979;28;20556;-47
2023/03/07 05:29:29;;;;;;;0.77;0.50;;;14.70;63.20;;;;;;5088312;28;20205;-48
2023/03/07 05:32:01;;;;;;;0.80;0.60;;;14.70;63.20;;;;;;5085313;28;20213;-47
2023/03/07 05:34:33;;;;;;;0.60;0.60;;;14.70;63.30;;;;;;5072504;28;20223;-47
2023/03/07 05:37:06;;;;;;;0.50;0.50;;;14.70;63.20;;;;;;5086491;28;20266;-47
2023/03/07 05:39:37;;;;;;;0.83;0.50;;;14.70;63.20;;;;;;5088706;28;20244;-48
2023/03/07 05:42:06;;;;;;;1.00;0.77;;;14.70;63.20;;;;;;5088964;28;20623;-47
2023/03/07 05:44:33;;;;;;;1.57;0.57;;;14.70;63.30;;;;;;5085982;28;20222;-48
2023/03/07 05:47:02;;;;;;;0.63;0.50;;;14.70;63.10;;;;;;5090068;28;20236;-48
2023/03/07 05:49:34;;;;;;;1.90;0.60;;;14.70;63.10;;;;;;5086559;28;20622;-48
2023/03/07 05:52:05;;;;;;;0.50;0.50;;;14.70;63.00;;;;;;5079669;28;20194;-47
2023/03/07 05:54:36;;;;;;;0.60;0.60;;;14.70;63.00;;;;;;5083267;28;20203;-47
2023/03/07 05:57:07;;;;;;;0.90;0.60;;;14.70;62.90;;;;;;5082849;28;20681;-48
2023/03/07 05:59:39;;;;;;;1.10;0.63;;;14.70;62.80;;;;;;5083616;28;20209;-47
2023/03/07 06:02:08;;;;;;;0.83;0.47;;;14.70;62.80;;;;;;5093672;28;20200;-47
2023/03/07 06:04:40;;;;;;;0.63;0.63;;;14.70;62.70;;;;;;5087887;28;20271;-47
2023/03/07 06:07:12;;;;;;;1.20;0.97;;;14.70;62.60;;;;;;5083041;28;20207;-48
2023/03/07 06:09:41;;;;;;;0.73;0.73;;;14.70;62.60;;;;;;5067425;28;20345;-47
2023/03/07 06:12:09;;;;;;;0.63;0.63;;;14.70;62.60;;;;;;5068749;28;20228;-47
2023/03/07 06:14:39;;;;;;;0.60;0.50;;;14.70;62.50;;;;;;5086970;28;20193;-47
2023/03/07 06:17:06;;;;;;;1.00;0.80;;;14.70;62.40;;;;;;5095268;28;20204;-48
2023/03/07 06:19:36;;;;;;;0.97;0.60;;;14.70;62.40;;;;;;5064995;28;20241;-49
2023/03/07 06:22:04;;;;;;;0.77;0.77;;;14.70;62.30;;;;;;5088027;28;20212;-47
2023/03/07 06:24:38;;;;;;;0.97;0.60;;;14.70;62.10;;;;;;5086596;28;20196;-47
2023/03/07 06:27:10;;;;;;;1.50;0.60;;;14.70;62.00;;;;;;5086175;28;20239;-47
2023/03/07 06:29:42;;;;;;;0.53;0.53;;;14.60;62.00;;;;;;5084765;28;20197;-47
2023/03/07 06:32:14;;;;;;;0.50;0.50;;;14.70;61.90;;;;;;5086224;28;20201;-47
2023/03/07 06:34:44;;;;;;;0.97;0.77;;;14.70;61.90;;;;;;5088232;28;20602;-47
2023/03/07 06:37:12;;;;;;;0.70;0.50;;;14.70;61.90;;;;;;5070194;28;20202;-47
2023/03/07 06:39:45;;;;;;;2.63;0.70;;;14.70;62.00;;;;;;5086663;28;20201;-48
2023/03/07 06:42:14;;;;;;;0.60;0.60;;;14.70;62.60;;;;;;5086981;28;20250;-47
2023/03/07 06:44:45;;;;;;;1.83;0.80;;;14.70;62.10;;;;;;5083113;28;20204;-47
2023/03/07 06:47:17;;;;;;;1.20;0.70;;;14.70;62.60;;;;;;5095648;28;20237;-47
2023/03/07 06:49:46;;;;;;;0.87;0.53;;;14.70;62.60;;;;;;5086529;28;20592;-47
2023/03/07 06:52:15;;;;;;;1.10;0.60;;;14.70;62.10;;;;;;5085895;28;20204;-47
2023/03/07 06:54:49;;;;;;;2.63;0.87;;;14.70;62.20;;;;;;5094190;28;20211;-47
2023/03/07 06:57:23;;;;;;;36.33;8.10;;;14.70;62.30;;;;;;5074569;28;20273;-47
2023/03/07 06:59:53;;;;;;;38.57;9.30;;;14.70;64.80;;;;;;5076979;28;20250;-47
2023/03/07 07:02:24;;;;;;;37.73;8.57;;;14.70;65.10;;;;;;5053920;28;20189;-47
2023/03/07 07:04:56;;;;;;;32.97;8.47;;;14.80;64.20;;;;;;5087106;28;20196;-47
2023/03/07 07:07:29;;;;;;;30.17;7.60;;;14.80;64.20;;;;;;5082978;28;20209;-48
2023/03/07 07:10:00;;;;;;;30.60;7.20;;;14.80;63.70;;;;;;5087139;28;20227;-47
2023/03/07 07:12:43;;;;;;;30.40;6.50;;;14.80;63.60;;;;;;5085136;28;20674;-47
2023/03/07 07:15:10;;;;;;;25.67;6.17;;;14.70;63.70;;;;;;5083438;28;20193;-47
2023/03/07 07:17:43;;;;;;;19.77;5.80;;;14.80;63.50;;;;;;5070443;28;20205;-47
2023/03/07 07:20:13;;;;;;;20.97;5.43;;;14.80;63.50;;;;;;5090757;28;20255;-47
2023/03/07 07:22:43;;;;;;;21.43;4.67;;;14.80;63.40;;;;;;5087952;28;20189;-47
2023/03/07 07:25:16;;;;;;;16.93;4.67;;;14.80;64.00;;;;;;5087061;28;20197;-47
2023/03/07 07:27:58;;;;;;;16.83;4.07;;;14.80;64.00;;;;;;5073781;28;20232;-47
2023/03/07 07:30:30;;;;;;;12.63;4.03;;;14.80;63.50;;;;;;5087445;28;20205;-47
2023/03/07 07:32:59;;;;;;;13.87;3.77;;;14.80;63.30;;;;;;5081367;28;20197;-47
2023/03/07 07:35:31;;;;;;;12.43;3.40;;;14.80;63.30;;;;;;5086948;28;20252;-47
2023/03/07 07:38:12;;;;;;;14.93;3.77;;;14.80;63.20;;;;;;5071240;28;20201;-47
2023/03/07 07:40:58;;;;;;;15.33;3.33;;;14.80;62.90;;;;;;5067677;28;20618;-48
2023/03/07 07:43:31;;;;;;;10.37;3.13;;;14.80;62.90;;;;;;5084412;28;20302;-47
2023/03/07 07:46:14;;;;;;;8.03;3.00;;;14.80;63.00;;;;;;5077872;28;20721;-47
2023/03/07 07:48:46;;;;;;;9.03;2.43;;;14.80;62.80;;;;;;5090081;28;20586;-47
2023/03/07 07:51:15;;;;;;;8.13;1.80;;;14.80;63.30;;;;;;5072918;28;20197;-48
2023/03/07 07:53:50;;;;;;;4.73;2.33;;;14.80;62.50;;;;;;5072744;28;20195;-48
2023/03/07 07:56:19;;;;;;;7.03;2.50;;;14.80;62.40;;;;;;5090490;28;20221;-47
2023/03/07 07:58:48;;;;;;;9.50;2.53;;;14.80;62.50;;;;;;5088349;28;20213;-48
2023/03/07 08:01:21;;;;;;;5.90;2.00;;;14.80;62.40;;;;;;5072330;28;20189;-47
2023/03/07 08:03:50;;;;;;;5.10;1.83;;;14.80;62.20;;;;;;5072302;28;20269;-47
2023/03/07 08:06:24;;;;;;;5.60;1.97;;;14.80;62.10;;;;;;5089820;28;20188;-47
2023/03/07 08:08:55;;;;;;;6.50;1.63;;;14.80;62.10;;;;;;5067985;28;20688;-47
2023/03/07 08:11:25;;;;;;;3.53;1.80;;;14.80;62.10;;;;;;5064561;28;20559;-47
2023/03/07 08:13:56;;;;;;;4.47;1.73;;;14.80;62.10;;;;;;5089985;28;20610;-47
2023/03/07 08:16:36;;;;;;;5.03;1.50;;;14.80;62.10;;;;;;5089696;28;20204;-47
2023/03/07 08:19:09;;;;;;;4.13;1.50;;;14.80;62.10;;;;;;5065416;28;21610;-48
2023/03/07 08:21:40;;;;;;;4.13;1.67;;;14.80;62.00;;;;;;5090246;28;20193;-47
2023/03/07 08:24:12;;;;;;;3.80;1.30;;;14.70;61.90;;;;;;5071045;28;20203;-47
2023/03/07 08:26:41;;;;;;;5.30;1.57;;;14.80;61.80;;;;;;5075719;28;20627;-47
2023/03/07 08:29:12;;;;;;;3.33;1.30;;;14.80;61.80;;;;;;5087727;28;20205;-48
2023/03/07 08:31:50;;;;;;;2.40;1.27;;;14.80;62.00;;;;;;5083821;28;20205;-48
2023/03/07 08:34:22;;;;;;;3.97;1.43;;;14.80;61.90;;;;;;5089104;28;20725;-47
2023/03/07 08:36:51;;;;;;;3.40;1.47;;;14.80;62.50;;;;;;5068813;28;20217;-47
2023/03/07 08:39:22;;;;;;;3.90;1.20;;;14.80;61.80;;;;;;5089879;28;20209;-47
2023/03/07 08:41:55;;;;;;;3.77;0.93;;;14.80;61.60;;;;;;5086185;28;20189;-47
2023/03/07 08:44:26;;;;;;;2.43;0.90;;;14.80;61.60;;;;;;5086117;28;20213;-47
2023/03/07 08:46:57;;;;;;;2.50;0.70;;;14.80;61.60;;;;;;5083564;28;20234;-47
2023/03/07 08:49:25;;;;;;;2.50;0.90;;;14.80;61.60;;;;;;5073407;28;20201;-47
2023/03/07 08:51:57;;;;;;;3.97;0.93;;;14.90;61.50;;;;;;5087313;28;20212;-47
2023/03/07 08:54:27;;;;;;;2.13;0.80;;;14.80;61.50;;;;;;5072482;28;20205;-47
2023/03/07 08:57:00;;;;;;;3.90;1.23;;;14.80;61.50;;;;;;5067285;28;20213;-47
2023/03/07 08:59:31;;;;;;;1.30;0.97;;;14.80;62.20;;;;;;5074018;28;20216;-47
2023/03/07 09:02:00;;;;;;;2.57;0.90;;;14.80;61.40;;;;;;5069001;28;20263;-47
2023/03/07 09:04:35;;;;;;;1.30;0.93;;;14.80;61.40;;;;;;5072633;28;20610;-47
2023/03/07 09:07:06;;;;;;;1.90;0.80;;;14.80;61.30;;;;;;5082524;28;20700;-48
2023/03/07 09:09:37;;;;;;;2.20;1.10;;;14.80;61.90;;;;;;5071330;28;20197;-47
2023/03/07 09:12:07;;;;;;;2.90;0.80;;;14.80;61.10;;;;;;5086794;28;20274;-47
2023/03/07 09:14:36;;;;;;;3.10;1.00;;;14.80;61.20;;;;;;5087017;28;20204;-47
2023/03/07 09:17:04;;;;;;;1.80;1.20;;;14.80;61.30;;;;;;5087084;28;20223;-49
2023/03/07 09:19:32;;;;;;;1.57;0.90;;;14.80;61.40;;;;;;5085839;28;20249;-47
2023/03/07 09:22:02;;;;;;;1.33;0.80;;;14.80;61.20;;;;;;5089808;28;20197;-48
2023/03/07 09:24:32;;;;;;;0.87;0.70;;;14.80;61.20;;;;;;5068130;28;20615;-47
2023/03/07 09:27:03;;;;;;;3.93;1.07;;;14.80;61.20;;;;;;5064852;28;20213;-47
2023/03/07 09:29:34;;;;;;;2.13;0.70;;;14.80;61.20;;;;;;5088893;28;20224;-48
2023/03/07 09:32:03;;;;;;;2.43;1.20;;;14.80;61.60;;;;;;5072532;28;20204;-47
2023/03/07 09:34:35;;;;;;;1.27;0.60;;;14.80;61.10;;;;;;5088600;28;20217;-47
2023/03/07 09:37:07;;;;;;;1.10;0.80;;;14.80;61.00;;;;;;5086400;28;20634;-47
2023/03/07 09:39:36;;;;;;;1.63;0.60;;;14.80;61.00;;;;;;5088779;28;20225;-47
2023/03/07 09:42:43;;;;;;;2.37;0.87;;;14.80;61.00;;;;;;5089746;28;20239;-47
2023/03/07 09:45:44;;;;;;;1.20;1.03;;;14.80;61.20;;;;;;5085462;28;20209;-47
2023/03/07 09:48:35;;;;;;;0.57;0.57;;;14.80;61.00;;;;;;5084279;28;20245;-47
2023/03/07 09:51:40;;;;;;;0.33;0.33;;;14.80;61.20;;;;;;5085894;28;20197;-47
2023/03/07 09:54:41;;;;;;;0.73;0.73;;;14.80;61.30;;;;;;5072908;28;20192;-47
2023/03/07 09:57:24;;;;;;;1.63;1.07;;;14.80;61.00;;;;;;5058457;28;20228;-47
2023/03/07 10:00:19;;;;;;;3.17;0.70;;;14.80;61.00;;;;;;5060706;28;20260;-47
2023/03/07 10:03:02;;;;;;;1.30;0.70;;;14.70;61.10;;;;;;5068557;28;20207;-47
2023/03/07 10:05:53;;;;;;;6.83;0.90;;;14.80;61.00;;;;;;5064041;28;20751;-47
2023/03/07 10:08:36;;;;;;;0.93;0.70;;;14.80;61.00;;;;;;5065184;28;20197;-47
2023/03/07 10:11:48;;;;;;;2.83;1.07;;;14.80;61.10;;;;;;5068098;28;20387;-47
2023/03/07 10:14:58;;;;;;;1.20;0.57;;;14.80;61.00;;;;;;5072267;28;20220;-47
2023/03/07 10:18:11;;;;;;;1.93;0.73;;;14.70;60.90;;;;;;5081067;28;20185;-47
2023/03/07 10:21:27;;;;;;;1.50;0.70;;;14.70;60.80;;;;;;5078502;28;20228;-48
2023/03/07 10:24:22;;;;;;;0.80;0.80;;;14.80;60.80;;;;;;5064979;28;20266;-47
2023/03/07 10:27:06;;;;;;;1.10;0.80;;;14.80;60.80;;;;;;5080686;28;20656;-47
2023/03/07 10:29:52;;;;;;;2.00;0.90;;;14.70;60.80;;;;;;5072164;28;20193;-48
2023/03/07 10:32:46;;;;;;;1.07;0.80;;;14.70;60.80;;;;;;5066691;28;20247;-47
2023/03/07 10:35:21;;;;;;;0.77;0.60;;;14.80;60.80;;;;;;5087710;28;20185;-47
2023/03/07 10:37:58;;;;;;;1.37;0.90;;;14.70;60.70;;;;;;5067949;28;20646;-47
2023/03/07 10:41:09;;;;;;;1.20;0.60;;;14.80;60.80;;;;;;5069796;28;20220;-47
2023/03/07 10:43:41;;;;;;;1.43;0.80;;;14.80;60.60;;;;;;4983747;28;20252;-48
2023/03/07 10:46:23;;;;;;;1.27;0.70;;;14.80;60.70;;;;;;4988860;28;20235;-47
2023/03/07 10:49:21;;;;;;;2.53;0.63;;;14.80;60.70;;;;;;4956602;28;20568;-47
2023/03/07 10:52:26;;;;;;;1.73;0.80;;;14.80;60.70;;;;;;4986592;28;20705;-47
2023/03/07 10:54:54;;;;;;;1.70;0.80;;;14.70;60.50;;;;;;4983468;28;20677;-47
2023/03/07 10:57:29;;;;;;;0.70;0.70;;;14.70;60.50;;;;;;4976130;28;20212;-47
2023/03/07 11:00:13;;;;;;;0.80;0.80;;;14.80;60.50;;;;;;4991442;28;20278;-47
2023/03/07 11:02:44;;;;;;;0.73;0.53;;;14.70;60.40;;;;;;4986207;28;20207;-48
2023/03/07 11:05:46;;;;;;;2.17;1.00;;;14.80;60.50;;;;;;4980725;28;20287;-47
2023/03/07 11:08:35;;;;;;;1.27;0.80;;;14.80;61.00;;;;;;4970064;28;20204;-47
2023/03/07 11:11:05;;;;;;;1.20;0.90;;;14.80;60.60;;;;;;4982922;28;20224;-47
2023/03/07 11:13:33;;;;;;;0.80;0.80;;;14.80;60.30;;;;;;4986305;28;20208;-47
2023/03/07 11:16:22;;;;;;;1.20;1.10;;;14.80;60.30;;;;;;4971047;28;20747;-47
2023/03/07 11:18:51;;;;;;;2.30;1.17;;;14.80;60.20;;;;;;5061430;28;20211;-47
2023/03/07 11:21:33;;;;;;;0.70;0.70;;;14.80;60.30;;;;;;5088491;28;20494;-47
2023/03/07 11:24:27;;;;;;;1.27;0.97;;;14.80;60.30;;;;;;5070798;28;20192;-47
2023/03/07 11:26:56;;;;;;;0.70;0.63;;;14.80;60.30;;;;;;5095411;28;20272;-47
2023/03/07 11:29:32;;;;;;;1.03;0.70;;;14.80;60.40;;;;;;5070623;28;20212;-47
2023/03/07 11:32:19;;;;;;;1.73;0.80;;;14.80;60.50;;;;;;5085455;28;20217;-47
2023/03/07 11:34:58;;;;;;;1.03;0.93;;;14.80;60.50;;;;;;5083048;28;20228;-47
2023/03/07 11:37:54;;;;;;;2.03;0.80;;;14.70;60.40;;;;;;5068219;28;20201;-47
2023/03/07 11:40:42;;;;;;;0.90;0.80;;;14.80;60.30;;;;;;5073432;28;20215;-47
2023/03/07 11:43:51;;;;;;;1.10;1.00;;;14.80;60.30;;;;;;5039723;28;20738;-47
2023/03/07 11:46:42;;;;;;;0.80;0.80;;;14.80;60.30;;;;;;5072367;28;20233;-47
2023/03/07 11:49:42;;;;;;;1.53;0.90;;;14.80;60.30;;;;;;5062633;28;20682;-47
2023/03/07 11:52:47;;;;;;;1.43;1.33;;;14.80;60.20;;;;;;5070048;28;20602;-47
2023/03/07 11:55:43;;;;;;;1.77;0.80;;;14.80;60.20;;;;;;5058417;28;20232;-47
2023/03/07 11:58:39;;;;;;;1.23;1.13;;;14.80;60.10;;;;;;5069282;28;20201;-47
2023/03/07 12:01:48;;;;;;;1.67;1.10;;;14.80;60.10;;;;;;5058417;28;20224;-47
2023/03/07 12:04:56;;;;;;;1.23;0.80;;;14.80;60.20;;;;;;5075231;28;20239;-47
2023/03/07 12:08:23;;;;;;;1.10;0.87;;;14.80;60.20;;;;;;5071789;28;20240;-47
2023/03/07 12:11:27;;;;;;;0.80;0.80;;;14.80;60.20;;;;;;5070701;28;20205;-47
2023/03/07 12:14:25;;;;;;;1.53;1.13;;;14.80;60.20;;;;;;5072946;28;20197;-47
2023/03/07 12:17:39;;;;;;;1.13;1.00;;;14.80;60.10;;;;;;5067551;28;20236;-47
2023/03/07 12:20:46;;;;;;;1.07;0.80;;;14.80;60.00;;;;;;5067336;28;20230;-47
2023/03/07 12:24:01;;;;;;;0.90;0.90;;;14.80;60.00;;;;;;5069917;28;20534;-47
2023/03/07 12:27:02;;;;;;;0.87;0.87;;;14.80;60.10;;;;;;4987968;28;20232;-47
2023/03/07 12:29:39;;;;;;;1.23;0.93;;;14.80;60.00;;;;;;5067058;28;20209;-47
2023/03/07 12:32:16;;;;;;;1.10;1.00;;;14.80;60.00;;;;;;5046039;28;20206;-47
2023/03/07 12:35:01;;;;;;;1.77;1.10;;;14.80;60.00;;;;;;5049302;28;20611;-47
2023/03/07 12:38:14;;;;;;;0.90;0.90;;;14.80;59.90;;;;;;5070760;28;20297;-47
2023/03/07 12:41:10;;;;;;;1.30;1.20;;;14.80;60.00;;;;;;5057096;28;20530;-47
2023/03/07 12:43:48;;;;;;;1.40;1.30;;;14.80;59.90;;;;;;5049591;28;20208;-47
2023/03/07 12:46:41;;;;;;;0.77;0.77;;;14.80;59.90;;;;;;5074453;28;20777;-47
2023/03/07 12:49:23;;;;;;;1.13;1.03;;;14.80;59.80;;;;;;5084646;28;20189;-47
2023/03/07 12:52:00;;;;;;;0.60;0.60;;;14.80;60.00;;;;;;5085576;28;20197;-47
2023/03/07 12:54:54;;;;;;;0.80;0.80;;;14.90;60.00;;;;;;5076276;28;20605;-48
2023/03/07 12:57:42;;;;;;;0.67;0.67;;;14.90;59.90;;;;;;5080960;28;20203;-47
2023/03/07 13:00:18;;;;;;;0.50;0.50;;;14.90;60.00;;;;;;5067848;28;20630;-47
2023/03/07 13:03:00;;;;;;;1.33;0.80;;;14.80;59.90;;;;;;5067214;28;20193;-47
2023/03/07 13:05:36;;;;;;;0.80;0.80;;;14.80;59.80;;;;;;5066655;28;20285;-47
2023/03/07 13:08:07;;;;;;;0.83;0.83;;;14.90;60.00;;;;;;5067958;28;20212;-47
2023/03/07 13:10:48;;;;;;;0.67;0.67;;;14.80;59.90;;;;;;5055869;28;20194;-47
2023/03/07 13:13:45;;;;;;;0.93;0.83;;;14.90;60.00;;;;;;5067588;28;20197;-47
2023/03/07 13:16:44;;;;;;;0.80;0.80;;;14.80;59.90;;;;;;5081552;28;20329;-47
2023/03/07 13:19:33;;;;;;;0.60;0.60;;;14.90;59.90;;;;;;5063942;28;20568;-47
2023/03/07 13:22:27;;;;;;;0.87;0.77;;;14.90;60.00;;;;;;5084277;28;20189;-47
2023/03/07 13:25:24;;;;;;;1.23;0.67;;;14.90;59.90;;;;;;5048422;28;20220;-47
2023/03/07 13:28:03;;;;;;;0.77;0.77;;;14.90;60.00;;;;;;5043946;28;20235;-47
2023/03/07 13:31:13;;;;;;;0.90;0.70;;;14.90;59.90;;;;;;5066140;28;20213;-47
2023/03/07 13:33:44;;;;;;;0.60;0.60;;;14.90;60.00;;;;;;5081975;28;20201;-47
2023/03/07 13:36:37;;;;;;;0.93;0.90;;;14.80;59.90;;;;;;5081887;28;20201;-47
2023/03/07 13:39:36;;;;;;;0.50;0.50;;;14.90;60.00;;;;;;5056138;28;20198;-47